Time;durP1;ratioP1;P1;durP2;ratioP2;P2;SDS_P1;SDS_P2;PMS_P1;PMS_P2;Temp;Humidity;BMP_temperature;BMP_pressure;BME280_temperature;BME280_humidity;BME280_pressure;Samples;Min_cycle;Max_cycle;Signal;HPM_P1;HPM_P2
2022/04/25 00:02:21;;;;;;;12.48;10.90;;;;;;;12.18;67.76;99453.06;5058827;28;20131;-77
2022/04/25 00:04:49;;;;;;;11.98;10.85;;;;;;;12.26;67.57;99462.44;5058434;28;20056;-78
2022/04/25 00:07:17;;;;;;;14.00;12.50;;;;;;;12.34;67.48;99458.72;5057652;28;20045;-78
2022/04/25 00:09:44;;;;;;;12.10;10.70;;;;;;;12.41;67.23;99457.31;5054690;28;20064;-78
2022/04/25 00:12:13;;;;;;;12.18;10.82;;;;;;;12.46;67.12;99460.69;5057385;28;20056;-79
2022/04/25 00:14:40;;;;;;;11.73;10.35;;;;;;;12.54;66.83;99454.16;5057445;28;20060;-78
2022/04/25 00:17:08;;;;;;;12.10;10.90;;;;;;;12.57;66.67;99459.03;5058399;28;20072;-79
2022/04/25 00:19:36;;;;;;;11.90;10.57;;;;;;;12.63;66.88;99459.59;5057454;28;20060;-79
2022/04/25 00:22:04;;;;;;;12.10;10.90;;;;;;;12.69;66.19;99466.56;5057872;28;20060;-79
2022/04/25 00:24:31;;;;;;;12.52;11.25;;;;;;;12.71;66.35;99458.66;5057016;28;20048;-78
2022/04/25 00:26:59;;;;;;;11.20;10.00;;;;;;;12.74;66.03;99462.72;5038678;28;20057;-78
2022/04/25 00:29:30;;;;;;;12.40;11.18;;;;;;;12.75;65.92;99456.78;5045914;28;20045;-77
2022/04/25 00:31:57;;;;;;;11.68;10.32;;;;;;;12.79;65.72;99468.06;5057590;28;20060;-78
2022/04/25 00:34:25;;;;;;;11.18;10.05;;;;;;;12.79;65.77;99466.06;5058085;28;20048;-79
2022/04/25 00:36:57;;;;;;;12.27;10.27;;;;;;;12.79;66.07;99473.66;5058974;28;20064;-78
2022/04/25 00:39:25;;;;;;;12.68;10.45;;;;;;;12.80;66.50;99473.28;5056639;28;20071;-78
2022/04/25 00:41:52;;;;;;;11.80;10.60;;;;;;;12.82;66.21;99478.53;5058123;28;20045;-78
2022/04/25 00:44:20;;;;;;;13.00;11.70;;;;;;;12.75;65.98;99481.91;5066519;28;20049;-78
2022/04/25 00:46:51;;;;;;;12.65;11.40;;;;;;;12.68;65.74;99480.88;5058691;28;20508;-78
2022/04/25 00:49:19;;;;;;;12.25;11.05;;;;;;;12.59;66.48;99490.22;5058707;28;20052;-78
2022/04/25 00:51:46;;;;;;;12.18;10.93;;;;;;;12.58;66.13;99491.41;5056243;28;20052;-77
2022/04/25 00:54:15;;;;;;;13.48;12.07;;;;;;;12.50;66.59;99497.13;5058632;28;20057;-79
2022/04/25 00:56:43;;;;;;;13.02;11.82;;;;;;;12.54;66.36;99501.63;5058859;28;20413;-79
2022/04/25 00:59:11;;;;;;;11.90;10.70;;;;;;;12.48;67.14;99502.25;5060055;28;20044;-78
2022/04/25 01:01:39;;;;;;;14.75;13.23;;;;;;;12.49;67.59;99501.88;5064660;28;20049;-78
2022/04/25 01:04:08;;;;;;;12.88;11.32;;;;;;;12.48;67.66;99503.03;5067028;28;20059;-79
2022/04/25 01:06:35;;;;;;;16.13;14.43;;;;;;;12.46;68.37;99505.38;5065298;28;20051;-79
2022/04/25 01:09:04;;;;;;;13.57;12.20;;;;;;;12.49;68.55;99504.66;5047465;28;20068;-79
2022/04/25 01:11:31;;;;;;;12.50;11.02;;;;;;;12.39;69.99;99510.75;5059770;28;20402;-79
2022/04/25 01:13:58;;;;;;;14.00;10.15;;;;;;;11.76;71.43;99524.97;5067089;28;20053;-78
2022/04/25 01:16:25;;;;;;;23.17;16.50;;;;;;;10.79;81.99;99520.63;5066953;28;20063;-78
2022/04/25 01:18:53;;;;;;;34.92;20.50;;;;;;;10.67;84.80;99524.19;5065442;28;20049;-79
2022/04/25 01:21:25;;;;;;;21.17;15.75;;;;;;;10.42;80.65;99521.22;5065013;28;20053;-79
2022/04/25 01:29:28;;;;;;;39.47;21.13;;;;;;;10.26;82.67;99509.00;5072067;28;20060;-79
2022/04/25 01:31:55;;;;;;;19.58;14.13;;;;;;;10.27;81.56;99502.28;5059472;28;20055;-78
2022/04/25 01:34:23;;;;;;;47.58;23.08;;;;;;;10.19;82.24;99494.81;5066640;28;20048;-79
2022/04/25 01:36:50;;;;;;;45.92;22.95;;;;;;;10.19;82.24;99497.59;5065824;28;20056;-78
2022/04/25 01:39:21;;;;;;;45.22;23.55;;;;;;;10.15;83.39;99501.03;5071504;28;20612;-79
2022/04/25 01:41:49;;;;;;;35.10;21.00;;;;;;;10.16;83.39;99494.31;5065302;28;20048;-78
2022/04/25 01:44:16;;;;;;;37.70;22.35;;;;;;;10.20;83.70;99499.19;5063670;28;20033;-78
2022/04/25 01:46:43;;;;;;;39.22;22.10;;;;;;;10.20;83.71;99497.22;5064427;28;20477;-79
2022/04/25 01:49:11;;;;;;;27.75;18.52;;;;;;;10.17;83.35;99500.69;5065332;28;20375;-79
2022/04/25 01:51:40;;;;;;;35.13;20.42;;;;;;;10.08;82.69;99500.75;5061632;28;20049;-79
2022/04/25 01:54:07;;;;;;;32.30;19.48;;;;;;;10.06;82.75;99497.47;5063995;28;20072;-79
2022/04/25 01:56:36;;;;;;;36.92;19.92;;;;;;;10.04;82.45;99494.22;5063424;28;20061;-79
2022/04/25 01:59:03;;;;;;;34.40;21.60;;;;;;;10.01;83.11;99494.88;5065407;28;20055;-79
2022/04/25 02:01:34;;;;;;;31.35;18.73;;;;;;;10.04;83.17;99502.56;5064839;28;20060;-80
2022/04/25 02:04:01;;;;;;;37.28;22.13;;;;;;;10.02;83.17;99506.84;5065222;28;20049;-79
2022/04/25 02:06:29;;;;;;;33.70;20.35;;;;;;;9.99;82.94;99511.09;5065218;28;20061;-80
2022/04/25 02:08:57;;;;;;;24.50;16.85;;;;;;;9.91;82.73;99515.56;5064542;28;20067;-80
2022/04/25 02:11:25;;;;;;;30.67;18.55;;;;;;;9.87;82.20;99510.97;5064104;28;20045;-78
2022/04/25 02:13:55;;;;;;;28.08;18.88;;;;;;;9.75;82.77;99509.72;5064444;28;20052;-80
2022/04/25 02:16:23;;;;;;;27.55;18.98;;;;;;;9.63;82.89;99511.56;5064754;28;20049;-79
2022/04/25 02:18:51;;;;;;;29.73;18.70;;;;;;;9.68;83.60;99512.19;5063695;28;20045;-79
2022/04/25 02:21:19;;;;;;;30.05;19.95;;;;;;;9.74;83.71;99516.44;5064926;28;20049;-79
2022/04/25 02:23:50;;;;;;;33.22;19.98;;;;;;;9.77;83.63;99511.38;5064083;28;20061;-80
2022/04/25 02:26:17;;;;;;;33.00;21.05;;;;;;;9.81;84.14;99501.19;5064511;28;20053;-79
2022/04/25 02:28:45;;;;;;;27.50;18.13;;;;;;;9.84;83.92;99506.09;5064279;28;20060;-80
2022/04/25 02:31:14;;;;;;;36.35;21.80;;;;;;;9.87;83.85;99508.19;5063749;28;20060;-79
2022/04/25 02:33:42;;;;;;;31.23;21.67;;;;;;;9.91;83.73;99511.94;5061835;28;20055;-80
2022/04/25 02:36:09;;;;;;;33.53;20.13;;;;;;;9.96;83.96;99506.19;5065065;28;20053;-80
2022/04/25 02:38:38;;;;;;;39.75;23.45;;;;;;;9.86;83.39;99507.38;5068301;28;20045;-79
2022/04/25 02:41:05;;;;;;;33.88;20.48;;;;;;;9.94;83.71;99502.94;5069342;28;20074;-80
2022/04/25 02:43:34;;;;;;;33.97;21.70;;;;;;;9.99;83.59;99504.72;5069412;28;20056;-80
2022/04/25 02:46:04;;;;;;;31.70;20.07;;;;;;;10.01;83.74;99494.88;5087802;28;20063;-80
2022/04/25 02:48:33;;;;;;;31.77;20.20;;;;;;;10.01;83.41;99494.88;5084608;28;20405;-80
2022/04/25 02:51:02;;;;;;;38.67;22.73;;;;;;;10.02;83.03;99490.97;5067124;28;20053;-79
2022/04/25 02:53:31;;;;;;;31.90;19.73;;;;;;;10.03;83.52;99491.75;5067618;28;20049;-79
2022/04/25 02:56:00;;;;;;;33.58;20.25;;;;;;;10.00;83.37;99484.09;5067440;28;20058;-79
2022/04/25 02:58:32;;;;;;;32.42;20.40;;;;;;;10.00;83.27;99489.66;5066074;28;20049;-80
2022/04/25 03:01:00;;;;;;;27.60;19.67;;;;;;;9.98;83.37;99490.00;5065355;28;20056;-81
2022/04/25 03:03:28;;;;;;;30.52;19.67;;;;;;;9.96;83.04;99486.72;5064936;28;20041;-80
2022/04/25 03:05:56;;;;;;;32.13;21.35;;;;;;;9.95;83.32;99480.34;5065918;28;20405;-80
2022/04/25 03:08:25;;;;;;;25.60;17.33;;;;;;;9.96;82.80;99475.59;5070877;28;20048;-80
2022/04/25 03:10:54;;;;;;;28.63;20.48;;;;;;;9.94;83.01;99475.13;5069665;28;20074;-80
2022/04/25 03:13:25;;;;;;;26.88;18.67;;;;;;;9.89;82.87;99476.13;5081688;28;20127;-80
2022/04/25 03:15:52;;;;;;;33.88;22.67;;;;;;;9.90;82.93;99474.16;5067716;28;20049;-80
2022/04/25 03:18:22;;;;;;;37.25;20.58;;;;;;;9.87;83.09;99466.47;5067298;28;20049;-80
2022/04/25 03:20:50;;;;;;;28.85;19.08;;;;;;;9.90;83.00;99468.59;5064165;28;20056;-80
2022/04/25 03:23:20;;;;;;;30.30;19.08;;;;;;;9.88;82.92;99468.91;5066946;28;20045;-80
2022/04/25 03:25:48;;;;;;;25.50;18.45;;;;;;;9.89;82.55;99458.59;5066246;28;20433;-80
2022/04/25 03:28:16;;;;;;;28.98;19.10;;;;;;;9.86;82.39;99464.84;5067969;28;20049;-81
2022/04/25 03:30:44;;;;;;;22.10;16.98;;;;;;;9.81;82.01;99459.50;5068183;28;20059;-78
2022/04/25 03:33:12;;;;;;;22.10;17.50;;;;;;;9.74;81.88;99452.47;5068207;28;20048;-81
2022/04/25 03:35:39;;;;;;;21.98;16.52;;;;;;;9.74;81.78;99446.06;5064842;28;20056;-78
2022/04/25 03:38:07;;;;;;;27.42;19.67;;;;;;;9.70;82.09;99456.22;5054042;28;20049;-78
2022/04/25 03:40:36;;;;;;;30.25;20.63;;;;;;;9.66;82.52;99452.50;5066837;28;20059;-79
2022/04/25 03:43:05;;;;;;;21.38;18.15;;;;;;;9.64;81.94;99457.56;5068286;28;20037;-79
2022/04/25 03:45:35;;;;;;;27.30;19.52;;;;;;;9.62;82.51;99455.13;5068185;28;20049;-81
2022/04/25 03:48:03;;;;;;;26.65;20.10;;;;;;;9.54;81.80;99453.22;5066551;28;20049;-80
2022/04/25 03:50:32;;;;;;;28.25;19.10;;;;;;;9.57;82.14;99452.53;5063750;28;20064;-79
2022/04/25 03:53:07;;;;;;;29.45;20.15;;;;;;;9.60;81.74;99449.09;5066006;28;20056;-79
2022/04/25 03:58:21;;;;;;;30.58;21.05;;;;;;;9.59;82.07;99450.22;5066205;28;20059;-79
2022/04/25 04:00:49;;;;;;;36.35;22.67;;;;;;;9.55;82.08;99454.81;5064118;28;20045;-79
2022/04/25 04:03:18;;;;;;;32.53;20.80;;;;;;;9.47;81.69;99456.50;5065871;28;20053;-80
2022/04/25 04:05:45;;;;;;;30.17;20.67;;;;;;;9.48;81.70;99457.31;5066550;28;20049;-79
2022/04/25 04:08:13;;;;;;;33.70;22.05;;;;;;;9.44;81.58;99451.59;5067343;28;20053;-80
2022/04/25 04:10:43;;;;;;;29.70;22.88;;;;;;;9.42;82.16;99455.84;5067051;28;20183;-80
2022/04/25 04:13:10;;;;;;;36.55;21.92;;;;;;;9.42;82.25;99444.75;5067271;28;20052;-80
2022/04/25 04:15:37;;;;;;;33.35;22.52;;;;;;;9.43;82.19;99444.41;5066410;28;20460;-80
2022/04/25 04:18:05;;;;;;;32.67;21.85;;;;;;;9.44;82.79;99448.00;5067099;28;20055;-79
2022/04/25 04:20:35;;;;;;;39.92;23.60;;;;;;;9.46;82.83;99446.53;5056741;28;20044;-80
2022/04/25 04:23:04;;;;;;;28.98;20.73;;;;;;;9.51;83.35;99451.06;5064185;28;20057;-80
2022/04/25 04:25:33;;;;;;;34.63;22.38;;;;;;;9.56;82.78;99448.13;5063647;28;20081;-79
2022/04/25 04:28:02;;;;;;;28.67;22.50;;;;;;;9.60;83.14;99454.66;5060753;28;20063;-80
2022/04/25 04:30:29;;;;;;;39.05;22.23;;;;;;;9.64;83.13;99446.44;5055290;28;20048;-80
2022/04/25 04:32:57;;;;;;;35.20;21.80;;;;;;;9.68;82.63;99448.25;5054076;28;20049;-80
2022/04/25 04:38:09;;;;;;;29.38;20.80;;;;;;;9.74;82.72;99455.25;5066587;28;20052;-79
2022/04/25 04:40:37;;;;;;;32.55;21.92;;;;;;;9.79;82.58;99459.00;5065620;28;20059;-80
2022/04/25 04:43:05;;;;;;;35.20;22.92;;;;;;;9.84;82.83;99467.97;5061659;28;20523;-79
2022/04/25 04:45:33;;;;;;;29.00;20.73;;;;;;;9.86;82.55;99467.63;5063554;28;20048;-80
2022/04/25 04:48:01;;;;;;;26.15;20.30;;;;;;;9.90;82.79;99463.84;5064282;28;20064;-79
2022/04/25 04:50:29;;;;;;;27.70;20.27;;;;;;;9.90;81.87;99471.38;5056513;28;20049;-79
2022/04/25 04:52:58;;;;;;;29.45;19.90;;;;;;;9.91;82.00;99478.56;5055264;28;20496;-80
2022/04/25 04:55:26;;;;;;;30.05;21.60;;;;;;;9.95;82.02;99490.66;5063796;28;20055;-80
2022/04/25 04:57:55;;;;;;;29.52;20.20;;;;;;;10.00;82.46;99503.56;5061904;28;20059;-79
2022/04/25 05:00:24;;;;;;;25.55;20.25;;;;;;;10.04;81.67;99510.91;5063475;28;20053;-78
2022/04/25 05:02:51;;;;;;;25.50;19.55;;;;;;;10.03;80.26;99523.19;5063386;28;20041;-78
2022/04/25 05:05:20;;;;;;;25.77;18.33;;;;;;;9.99;80.71;99525.00;5047221;28;20087;-80
2022/04/25 05:07:48;;;;;;;24.60;17.90;;;;;;;9.96;79.82;99536.81;5063565;28;20065;-80
2022/04/25 05:10:16;;;;;;;25.30;20.83;;;;;;;9.96;80.56;99536.81;5061001;28;20053;-79
2022/04/25 05:12:50;;;;;;;22.05;18.40;;;;;;;9.95;80.73;99544.34;5063479;28;20045;-80
2022/04/25 05:15:18;;;;;;;26.02;20.23;;;;;;;10.01;81.05;99550.50;5063373;28;20049;-79
2022/04/25 05:17:48;;;;;;;29.30;20.05;;;;;;;10.06;81.51;99546.75;5064888;28;20059;-80
2022/04/25 05:20:16;;;;;;;27.13;20.80;;;;;;;10.08;81.68;99552.78;5071411;28;20053;-80
2022/04/25 05:22:45;;;;;;;26.17;18.90;;;;;;;10.14;81.55;99557.00;5062549;28;20045;-80
2022/04/25 05:25:15;;;;;;;17.25;15.55;;;;;;;10.14;80.20;99549.50;5064960;28;20071;-80
2022/04/25 05:27:44;;;;;;;20.73;16.88;;;;;;;10.16;80.69;99561.13;5065103;28;20048;-80
2022/04/25 05:30:12;;;;;;;23.60;17.73;;;;;;;10.24;80.92;99564.19;5063346;28;20055;-80
2022/04/25 05:32:45;;;;;;;24.95;18.50;;;;;;;10.34;81.37;99567.44;5063443;28;20053;-80
2022/04/25 05:35:18;;;;;;;23.15;18.95;;;;;;;10.42;81.43;99564.94;5064707;28;20063;-80
2022/04/25 05:37:46;;;;;;;21.65;18.42;;;;;;;10.49;81.69;99566.03;5062153;28;20494;-80
2022/04/25 05:40:15;;;;;;;19.17;15.98;;;;;;;10.59;81.71;99564.84;5063108;28;20057;-80
2022/04/25 05:42:43;;;;;;;18.17;16.30;;;;;;;10.66;81.15;99569.88;5064024;28;20049;-80
2022/04/25 05:45:12;;;;;;;20.42;18.33;;;;;;;10.74;81.38;99571.78;5062996;28;20053;-80
2022/04/25 05:47:40;;;;;;;20.55;16.98;;;;;;;10.83;81.50;99568.94;5062670;28;20072;-80
2022/04/25 05:52:56;;;;;;;18.67;16.42;;;;;;;10.97;81.00;99573.09;5064937;28;20064;-79
2022/04/25 05:55:23;;;;;;;20.33;16.60;;;;;;;11.03;81.22;99579.28;5052645;28;20049;-80
2022/04/25 05:57:51;;;;;;;18.98;16.95;;;;;;;11.08;80.69;99584.66;5060729;28;20060;-79
2022/04/25 06:00:19;;;;;;;20.08;17.30;;;;;;;11.13;80.78;99581.69;5058917;28;20060;-79
2022/04/25 06:02:47;;;;;;;19.63;17.42;;;;;;;11.17;81.26;99584.56;5063554;28;20059;-79
2022/04/25 06:05:15;;;;;;;20.17;16.05;;;;;;;11.23;80.81;99585.19;5046043;28;20135;-78
2022/04/25 06:07:44;;;;;;;15.93;14.25;;;;;;;11.21;79.39;99584.72;5064453;28;20053;-79
2022/04/25 06:10:15;;;;;;;18.60;16.33;;;;;;;11.22;79.14;99592.75;5061083;28;20068;-79
2022/04/25 06:12:44;;;;;;;17.92;16.13;;;;;;;11.22;79.03;99592.75;5044296;28;20053;-79
2022/04/25 06:15:12;;;;;;;18.83;16.65;;;;;;;11.27;79.86;99595.31;5047730;28;20061;-78
2022/04/25 06:17:39;;;;;;;16.75;14.82;;;;;;;11.28;78.86;99594.19;5064947;28;20053;-79
2022/04/25 06:20:09;;;;;;;21.95;17.05;;;;;;;11.30;79.59;99591.88;5064366;28;20052;-79
2022/04/25 06:22:37;;;;;;;16.75;14.90;;;;;;;11.36;78.94;99604.44;5044398;28;20049;-79
2022/04/25 06:25:06;;;;;;;18.60;16.55;;;;;;;11.41;79.07;99605.41;5057794;28;20049;-80
2022/04/25 06:27:35;;;;;;;15.33;13.77;;;;;;;11.42;77.76;99602.25;5062501;28;20053;-79
2022/04/25 06:30:04;;;;;;;17.70;15.85;;;;;;;11.46;78.74;99596.81;5057257;28;20494;-79
2022/04/25 06:32:31;;;;;;;18.50;15.02;;;;;;;11.51;78.98;99604.97;5062790;28;20049;-79
2022/04/25 06:35:00;;;;;;;15.55;13.93;;;;;;;11.55;78.49;99603.94;5064509;28;20055;-78
2022/04/25 06:37:27;;;;;;;14.48;12.95;;;;;;;11.65;78.80;99607.47;5061477;28;20057;-78
2022/04/25 06:39:55;;;;;;;16.58;14.63;;;;;;;11.71;79.19;99601.31;5064512;28;20048;-79
2022/04/25 06:42:23;;;;;;;13.82;11.73;;;;;;;11.77;77.68;99596.34;5053335;28;20057;-77
2022/04/25 06:44:52;;;;;;;13.38;11.80;;;;;;;11.83;77.47;99610.91;5056770;28;20052;-78
2022/04/25 06:47:19;;;;;;;12.68;11.38;;;;;;;11.86;76.92;99611.00;5063841;28;20060;-79
2022/04/25 06:49:46;;;;;;;12.23;10.73;;;;;;;11.88;76.28;99613.47;5063514;28;20041;-78
2022/04/25 06:52:14;;;;;;;10.15;9.10;;;;;;;11.94;75.74;99626.88;5049822;28;20437;-77
2022/04/25 06:54:41;;;;;;;12.20;10.90;;;;;;;12.00;75.55;99621.91;5058703;28;20044;-78
2022/04/25 06:57:35;;;;;;;;;;;;;;;;;;;;;
2022/04/25 07:00:26;;;;;;;11.20;9.60;;;;;;;11.98;75.10;99627.00;5066252;28;20067;-78
2022/04/25 07:03:15;;;;;;;10.35;9.25;;;;;;;11.93;75.25;99632.81;5063720;28;20044;-79
2022/04/25 07:06:22;;;;;;;11.90;9.38;;;;;;;11.89;75.08;99631.88;5065240;28;20052;-79
2022/04/25 07:12:44;;;;;;;9.77;8.70;;;;;;;11.92;75.04;99631.19;5053400;28;20061;-80
2022/04/25 07:18:34;;;;;;;9.38;8.43;;;;;;;11.81;74.28;99638.34;5056840;28;20067;-78
2022/04/25 07:33:33;;;;;;;6.75;6.07;;;;;;;11.75;74.17;99655.28;5061746;28;20056;-79
2022/04/25 07:36:24;;;;;;;6.45;5.78;;;;;;;11.92;74.85;99659.09;5060429;28;20060;-79
2022/04/25 07:39:26;;;;;;;7.28;6.57;;;;;;;12.09;74.66;99653.31;5057191;28;20067;-80
2022/04/25 07:45:48;;;;;;;7.05;5.97;;;;;;;12.31;72.43;99657.69;5063144;28;20068;-81
2022/04/25 07:48:34;;;;;;;7.30;6.50;;;;;;;12.42;73.23;99666.44;5060292;28;20056;-79
2022/04/25 07:51:21;;;;;;;7.40;6.30;;;;;;;12.51;72.81;99663.53;5062499;28;20063;-79
2022/04/25 07:54:10;;;;;;;7.95;5.78;;;;;;;12.55;73.28;99672.84;5061658;28;20056;-80
2022/04/25 07:57:14;;;;;;;6.43;5.60;;;;;;;12.59;73.39;99669.00;5060657;28;20060;-79
2022/04/25 08:00:03;;;;;;;6.43;5.40;;;;;;;12.69;73.28;99669.72;4978751;28;20058;-79
2022/04/25 08:06:10;;;;;;;6.57;5.90;;;;;;;12.73;72.28;99681.84;4978665;28;20074;-79
2022/04/25 08:08:50;;;;;;;7.88;7.13;;;;;;;12.74;72.76;99677.88;4970062;28;20428;-78
2022/04/25 08:11:24;;;;;;;8.35;7.00;;;;;;;12.65;71.85;99683.56;4971083;28;20447;-77
2022/04/25 08:22:58;;;;;;;8.35;7.47;;;;;;;12.72;70.98;99685.78;4971103;28;20050;-78
2022/04/25 08:25:36;;;;;;;8.63;7.72;;;;;;;12.80;70.17;99691.25;4975804;28;20051;-79
2022/04/25 08:28:29;;;;;;;8.20;7.40;;;;;;;12.94;70.80;99693.72;4979633;28;20051;-78
2022/04/25 08:34:51;;;;;;;10.15;8.30;;;;;;;13.19;70.16;99699.31;4976808;28;20063;-80
2022/04/25 08:38:04;;;;;;;9.40;7.93;;;;;;;13.34;69.91;99700.59;5024289;28;20065;-81
2022/04/25 08:41:01;;;;;;;9.18;7.95;;;;;;;13.51;69.88;99710.69;5055292;28;20528;-79
2022/04/25 08:43:59;;;;;;;8.05;7.30;;;;;;;13.71;70.10;99706.94;5042485;28;20053;-79
2022/04/25 08:47:08;;;;;;;8.52;7.68;;;;;;;13.95;68.43;99713.59;5038003;28;20057;-79
2022/04/25 08:50:03;;;;;;;8.10;7.32;;;;;;;14.14;67.09;99710.94;5046608;28;20053;-80
2022/04/25 08:56:29;;;;;;;8.25;7.45;;;;;;;14.74;66.83;99726.97;5044164;28;20056;-81
2022/04/25 09:02:47;;;;;;;8.57;7.28;;;;;;;15.06;65.72;99727.00;5033282;28;20071;-80
2022/04/25 09:16:12;;;;;;;8.45;7.65;;;;;;;15.77;62.62;99730.66;4994571;28;20066;-81
2022/04/25 09:36:26;;;;;;;7.30;6.53;;;;;;;16.55;58.00;99737.06;5060188;28;20048;-82
2022/04/25 09:39:47;;;;;;;8.30;7.50;;;;;;;16.56;57.01;99749.91;5055154;28;20059;-81
2022/04/25 09:46:36;;;;;;;7.63;6.88;;;;;;;16.87;57.47;99739.66;5061984;28;20351;-81
2022/04/25 09:50:01;;;;;;;7.25;6.55;;;;;;;17.10;57.17;99733.22;4949814;28;20059;-81
2022/04/25 09:56:56;;;;;;;7.30;6.60;;;;;;;17.33;53.88;99744.47;5054932;28;20045;-81
2022/04/25 10:03:26;;;;;;;8.88;7.97;;;;;;;17.62;53.61;99740.88;5061982;28;20053;-80
2022/04/25 10:09:29;;;;;;;9.85;8.85;;;;;;;18.02;49.93;99745.06;5062567;28;20049;-79
2022/04/25 10:12:07;;;;;;;8.15;7.32;;;;;;;18.19;50.43;99751.31;5061600;28;20059;-79
2022/04/25 10:14:51;;;;;;;8.00;7.20;;;;;;;18.31;50.67;99755.88;5063157;28;20065;-79
2022/04/25 10:17:35;;;;;;;8.13;7.32;;;;;;;18.42;48.38;99754.00;5057220;28;20052;-79
2022/04/25 10:20:12;;;;;;;8.02;7.22;;;;;;;18.50;49.66;99755.72;5060984;28;20056;-80
2022/04/25 10:22:56;;;;;;;7.88;7.18;;;;;;;18.59;47.75;99758.22;5067594;28;20056;-78
2022/04/25 10:25:39;;;;;;;7.40;6.70;;;;;;;18.65;49.29;99757.47;5065389;28;20056;-79
2022/04/25 10:28:32;;;;;;;8.70;7.80;;;;;;;18.71;47.98;99762.75;5062849;28;20049;-79
2022/04/25 10:31:38;;;;;;;8.52;7.13;;;;;;;18.83;48.29;99756.88;5059180;28;20163;-80
2022/04/25 10:34:47;;;;;;;7.65;6.70;;;;;;;19.01;46.64;99757.06;5056749;28;20053;-78
2022/04/25 10:37:45;;;;;;;7.18;6.47;;;;;;;19.14;46.22;99764.00;5052004;28;20061;-79
2022/04/25 10:47:19;;;;;;;8.90;8.10;;;;;;;19.31;45.89;99756.09;5057490;28;20057;-79
2022/04/25 10:50:20;;;;;;;7.47;6.78;;;;;;;19.53;45.38;99754.22;5053514;28;20045;-79
2022/04/25 10:53:13;;;;;;;9.02;7.93;;;;;;;19.61;44.76;99762.38;5053817;28;20056;-81
2022/04/25 10:56:14;;;;;;;6.35;5.75;;;;;;;19.58;45.80;99765.16;5049792;28;20056;-80
2022/04/25 10:59:38;;;;;;;8.30;7.50;;;;;;;19.24;44.19;99768.94;5058913;28;20056;-81
2022/04/25 11:02:40;;;;;;;7.28;6.57;;;;;;;18.92;45.58;99768.66;5066138;28;20060;-81
2022/04/25 11:05:45;;;;;;;8.00;7.22;;;;;;;18.55;45.12;99769.44;5059798;28;20390;-79
2022/04/25 11:09:00;;;;;;;10.02;7.68;;;;;;;18.19;46.56;99771.84;5058158;28;20045;-79
2022/04/25 11:11:48;;;;;;;7.00;6.30;;;;;;;17.92;47.57;99773.09;5041064;28;20061;-78
2022/04/25 11:14:29;;;;;;;8.32;7.53;;;;;;;17.60;48.34;99781.88;5060774;28;20632;-79
2022/04/25 11:17:18;;;;;;;8.50;7.60;;;;;;;17.40;48.81;99779.13;5059345;28;20061;-78
2022/04/25 11:19:53;;;;;;;7.78;7.00;;;;;;;17.26;50.07;99787.38;5062780;28;20064;-79
2022/04/25 11:22:58;;;;;;;7.50;6.80;;;;;;;17.08;49.85;99783.44;5065197;28;20049;-79
2022/04/25 11:25:50;;;;;;;7.82;7.13;;;;;;;16.80;50.11;99792.97;4993068;28;20060;-78
2022/04/25 11:28:36;;;;;;;7.72;7.03;;;;;;;16.72;50.18;99794.00;5063730;28;20053;-79
2022/04/25 11:31:33;;;;;;;8.10;7.30;;;;;;;16.56;50.09;99796.91;5064748;28;20057;-79
2022/04/25 11:34:15;;;;;;;9.07;8.18;;;;;;;16.44;50.53;99795.91;5057493;28;20053;-79
2022/04/25 11:36:57;;;;;;;8.20;7.32;;;;;;;16.30;51.63;99806.84;5060771;28;20045;-78
2022/04/25 11:42:43;;;;;;;9.02;8.10;;;;;;;16.06;52.56;99807.91;5018922;28;20054;-78
2022/04/25 11:45:33;;;;;;;8.57;7.70;;;;;;;16.03;52.35;99803.06;5056876;28;20084;-79
2022/04/25 11:48:18;;;;;;;9.43;8.52;;;;;;;15.96;52.76;99794.47;5063604;28;20056;-79
2022/04/25 11:50:59;;;;;;;9.82;8.82;;;;;;;15.97;53.04;99805.31;5064215;28;20063;-78
2022/04/25 11:53:39;;;;;;;9.77;8.77;;;;;;;16.00;53.24;99798.16;5059702;28;20060;-78
2022/04/25 11:56:30;;;;;;;8.50;7.70;;;;;;;16.07;53.52;99806.75;5065433;28;20090;-79
2022/04/25 11:59:19;;;;;;;9.18;8.27;;;;;;;15.86;53.80;99809.09;5068960;28;20060;-78
2022/04/25 12:01:57;;;;;;;9.27;8.27;;;;;;;16.09;53.42;99812.00;5063558;28;20501;-78
2022/04/25 12:04:33;;;;;;;9.35;7.75;;;;;;;16.18;52.81;99821.03;5057083;28;20064;-78
2022/04/25 12:07:14;;;;;;;8.55;7.65;;;;;;;16.22;52.23;99814.28;5062318;28;20059;-78
2022/04/25 12:16:14;;;;;;;7.82;7.10;;;;;;;16.21;53.66;99821.13;5064803;28;20056;-80
2022/04/25 12:19:02;;;;;;;7.18;6.45;;;;;;;16.17;53.97;99820.22;5066193;28;20059;-78
2022/04/25 12:21:47;;;;;;;7.50;6.78;;;;;;;16.17;54.89;99816.59;5047393;28;20053;-78
2022/04/25 12:24:21;;;;;;;8.30;7.50;;;;;;;16.16;54.75;99823.41;5057079;28;20524;-76
2022/04/25 12:26:53;;;;;;;9.80;8.15;;;;;;;16.06;54.57;99819.16;5057530;28;20045;-76
2022/04/25 12:29:30;;;;;;;8.82;7.93;;;;;;;15.95;55.87;99829.34;5053232;28;20049;-78
2022/04/25 12:32:07;;;;;;;8.05;7.25;;;;;;;16.01;56.50;99822.28;5048416;28;20049;-78
2022/04/25 12:34:42;;;;;;;9.27;8.38;;;;;;;16.04;56.75;99827.13;5067595;28;20049;-77
2022/04/25 12:37:26;;;;;;;8.00;7.25;;;;;;;16.23;56.35;99830.00;5065753;28;20383;-80
2022/04/25 12:40:02;;;;;;;7.88;6.53;;;;;;;16.36;54.92;99825.03;5059897;28;20052;-76
2022/04/25 12:42:54;;;;;;;6.95;6.25;;;;;;;16.52;55.40;99822.13;5059238;28;20418;-78
2022/04/25 12:45:28;;;;;;;7.75;7.00;;;;;;;16.42;55.49;99832.00;5059052;28;20049;-77
2022/04/25 12:48:17;;;;;;;7.65;6.85;;;;;;;16.41;55.04;99835.97;5060915;28;20049;-78
2022/04/25 12:50:59;;;;;;;8.63;7.72;;;;;;;16.20;56.04;99843.94;5041496;28;20051;-79
2022/04/25 12:54:44;;;;;;;8.88;7.97;;;;;;;15.97;57.11;99843.84;5059306;28;20053;-81
2022/04/25 12:58:02;;;;;;;8.80;7.90;;;;;;;15.76;58.03;99846.97;5058628;28;20414;-80
2022/04/25 13:01:02;;;;;;;9.88;8.38;;;;;;;15.96;58.55;99842.22;5035320;28;20068;-77
2022/04/25 13:04:17;;;;;;;9.60;8.57;;;;;;;16.30;58.76;99834.13;5036449;28;20056;-78
2022/04/25 13:07:08;;;;;;;8.25;7.45;;;;;;;16.68;58.10;99833.31;5036683;28;20053;-79
2022/04/25 13:09:56;;;;;;;10.35;8.65;;;;;;;16.91;57.08;99833.38;5039227;28;20061;-78
2022/04/25 13:12:53;;;;;;;13.15;9.60;;;;;;;17.08;55.93;99840.53;5039923;28;20157;-79
2022/04/25 13:15:30;;;;;;;9.98;7.28;;;;;;;17.25;54.99;99839.22;5040937;28;20054;-79
2022/04/25 13:18:29;;;;;;;7.32;6.45;;;;;;;17.38;54.48;99843.44;5048657;28;20057;-79
2022/04/25 13:21:38;;;;;;;6.50;5.55;;;;;;;17.49;53.37;99837.19;5061760;28;20363;-80
2022/04/25 13:27:30;;;;;;;5.00;3.90;;;;;;;17.72;52.00;99835.16;5063436;28;20061;-80
2022/04/25 13:33:20;;;;;;;3.90;3.50;;;;;;;17.79;50.38;99840.91;5060036;28;20059;-79
2022/04/25 13:36:11;;;;;;;4.40;4.00;;;;;;;17.87;50.07;99838.22;5060272;28;20051;-81
2022/04/25 13:39:08;;;;;;;3.60;3.30;;;;;;;17.94;50.34;99846.78;5060847;28;20405;-80
2022/04/25 13:42:03;;;;;;;3.60;3.28;;;;;;;17.96;51.02;99844.41;5060411;28;20057;-80
2022/04/25 13:44:35;;;;;;;4.47;3.58;;;;;;;17.89;51.38;99844.28;5062281;28;20078;-78
2022/04/25 13:47:32;;;;;;;3.88;3.47;;;;;;;17.92;51.47;99850.00;5051421;28;20049;-79
2022/04/25 13:50:13;;;;;;;4.35;3.95;;;;;;;17.96;50.38;99850.06;5063061;28;20048;-78
2022/04/25 13:55:46;;;;;;;4.03;3.33;;;;;;;18.14;48.88;99855.94;5052450;28;20045;-80
2022/04/25 13:58:35;;;;;;;4.32;3.15;;;;;;;18.40;47.83;99853.06;5057759;28;20067;-79
2022/04/25 14:01:14;;;;;;;3.50;3.20;;;;;;;18.80;48.13;99847.94;5060237;28;20053;-80
2022/04/25 14:04:05;;;;;;;3.72;3.33;;;;;;;19.15;47.20;99847.53;5051934;28;20049;-80
2022/04/25 14:06:45;;;;;;;4.47;4.07;;;;;;;19.76;44.84;99848.09;5061144;28;20513;-78
2022/04/25 14:09:25;;;;;;;3.70;3.40;;;;;;;20.26;44.19;99837.09;5064139;28;20398;-81
2022/04/25 14:12:00;;;;;;;3.90;3.50;;;;;;;20.80;43.11;99840.16;5064556;28;20045;-79
2022/04/25 14:14:44;;;;;;;4.35;3.70;;;;;;;20.83;41.98;99841.38;5066564;28;20064;-80
2022/04/25 14:17:24;;;;;;;4.35;3.95;;;;;;;20.83;42.01;99841.38;5056854;28;20051;-80
2022/04/25 14:20:07;;;;;;;4.43;4.03;;;;;;;20.84;42.37;99837.34;5063638;28;20053;-80
2022/04/25 14:22:43;;;;;;;4.90;4.40;;;;;;;20.59;41.66;99840.88;5056776;28;20049;-76